sensor_id;sensor_type;location;lat;lon;timestamp;temperature;humidity
64549;DHT22;49838;51.798;10.954;2023-08-06T00:01:25;22.50;39.10
64549;DHT22;49838;51.798;10.954;2023-08-06T00:03:52;22.50;39.10
64549;DHT22;49838;51.798;10.954;2023-08-06T00:06:20;22.50;39.10
64549;DHT22;49838;51.798;10.954;2023-08-06T00:08:47;22.50;39.20
64549;DHT22;49838;51.798;10.954;2023-08-06T00:11:14;22.50;39.00
64549;DHT22;49838;51.798;10.954;2023-08-06T00:13:42;22.40;39.00
64549;DHT22;49838;51.798;10.954;2023-08-06T00:16:11;22.40;39.10
64549;DHT22;49838;51.798;10.954;2023-08-06T00:18:39;22.40;39.10
64549;DHT22;49838;51.798;10.954;2023-08-06T00:21:07;22.50;39.30
64549;DHT22;49838;51.798;10.954;2023-08-06T00:23:34;22.40;39.10
64549;DHT22;49838;51.798;10.954;2023-08-06T00:26:01;22.40;39.10
64549;DHT22;49838;51.798;10.954;2023-08-06T00:28:29;22.40;39.20
64549;DHT22;49838;51.798;10.954;2023-08-06T00:30:56;22.40;39.20
64549;DHT22;49838;51.798;10.954;2023-08-06T00:33:25;22.40;39.40
64549;DHT22;49838;51.798;10.954;2023-08-06T00:35:52;22.40;39.30
64549;DHT22;49838;51.798;10.954;2023-08-06T00:38:19;22.40;39.20
64549;DHT22;49838;51.798;10.954;2023-08-06T00:40:47;22.40;39.20
64549;DHT22;49838;51.798;10.954;2023-08-06T00:43:14;22.40;39.30
64549;DHT22;49838;51.798;10.954;2023-08-06T00:45:41;22.30;39.30
64549;DHT22;49838;51.798;10.954;2023-08-06T00:48:10;22.30;39.40
64549;DHT22;49838;51.798;10.954;2023-08-06T00:50:39;22.30;39.20
64549;DHT22;49838;51.798;10.954;2023-08-06T00:53:06;22.30;39.90
64549;DHT22;49838;51.798;10.954;2023-08-06T00:55:34;22.30;39.20
64549;DHT22;49838;51.798;10.954;2023-08-06T00:58:02;22.30;39.90
64549;DHT22;49838;51.798;10.954;2023-08-06T01:00:30;22.30;39.40
64549;DHT22;49838;51.798;10.954;2023-08-06T01:02:57;22.30;39.20
64549;DHT22;49838;51.798;10.954;2023-08-06T01:05:24;22.30;39.20
64549;DHT22;49838;51.798;10.954;2023-08-06T01:07:58;22.30;39.30
64549;DHT22;49838;51.798;10.954;2023-08-06T01:10:40;22.30;39.30
64549;DHT22;49838;51.798;10.954;2023-08-06T01:13:18;22.30;39.30
64549;DHT22;49838;51.798;10.954;2023-08-06T01:15:53;22.30;39.50
64549;DHT22;49838;51.798;10.954;2023-08-06T01:18:23;22.20;39.30
64549;DHT22;49838;51.798;10.954;2023-08-06T01:20:52;22.20;39.30
64549;DHT22;49838;51.798;10.954;2023-08-06T01:23:19;22.20;39.40
64549;DHT22;49838;51.798;10.954;2023-08-06T01:25:49;22.20;39.40
64549;DHT22;49838;51.798;10.954;2023-08-06T01:28:26;22.20;39.40
64549;DHT22;49838;51.798;10.954;2023-08-06T01:30:59;22.20;39.40
64549;DHT22;49838;51.798;10.954;2023-08-06T01:33:30;22.20;39.40
64549;DHT22;49838;51.798;10.954;2023-08-06T01:36:00;22.20;39.40
64549;DHT22;49838;51.798;10.954;2023-08-06T01:38:28;22.20;39.40
64549;DHT22;49838;51.798;10.954;2023-08-06T01:40:55;22.20;39.40
64549;DHT22;49838;51.798;10.954;2023-08-06T01:43:23;22.10;39.40
64549;DHT22;49838;51.798;10.954;2023-08-06T01:45:50;22.10;39.40
64549;DHT22;49838;51.798;10.954;2023-08-06T01:48:17;22.10;39.50
64549;DHT22;49838;51.798;10.954;2023-08-06T01:50:44;22.10;39.40
64549;DHT22;49838;51.798;10.954;2023-08-06T01:53:13;22.10;39.40
64549;DHT22;49838;51.798;10.954;2023-08-06T01:55:40;22.10;39.50
64549;DHT22;49838;51.798;10.954;2023-08-06T01:58:07;22.10;39.40
64549;DHT22;49838;51.798;10.954;2023-08-06T02:00:35;22.10;39.40
64549;DHT22;49838;51.798;10.954;2023-08-06T02:03:02;22.10;39.50
64549;DHT22;49838;51.798;10.954;2023-08-06T02:05:29;22.10;39.40
64549;DHT22;49838;51.798;10.954;2023-08-06T02:07:57;22.10;39.50
64549;DHT22;49838;51.798;10.954;2023-08-06T02:10:25;22.10;39.50
64549;DHT22;49838;51.798;10.954;2023-08-06T02:12:53;22.10;39.50
64549;DHT22;49838;51.798;10.954;2023-08-06T02:15:20;22.10;39.50
64549;DHT22;49838;51.798;10.954;2023-08-06T02:17:47;22.10;39.50
64549;DHT22;49838;51.798;10.954;2023-08-06T02:20:15;22.20;39.50
64549;DHT22;49838;51.798;10.954;2023-08-06T02:22:42;22.20;39.50
64549;DHT22;49838;51.798;10.954;2023-08-06T02:25:10;22.20;39.50
64549;DHT22;49838;51.798;10.954;2023-08-06T02:27:38;22.20;39.50
64549;DHT22;49838;51.798;10.954;2023-08-06T02:30:06;22.20;39.60
64549;DHT22;49838;51.798;10.954;2023-08-06T02:32:34;22.20;39.60
64549;DHT22;49838;51.798;10.954;2023-08-06T02:35:01;22.20;39.70
64549;DHT22;49838;51.798;10.954;2023-08-06T02:37:29;22.20;39.60
64549;DHT22;49838;51.798;10.954;2023-08-06T02:39:56;22.20;39.50
64549;DHT22;49838;51.798;10.954;2023-08-06T02:42:23;22.20;39.60
64549;DHT22;49838;51.798;10.954;2023-08-06T02:44:53;22.20;39.60
64549;DHT22;49838;51.798;10.954;2023-08-06T02:47:21;22.20;39.70
64549;DHT22;49838;51.798;10.954;2023-08-06T02:49:49;22.20;39.60
64549;DHT22;49838;51.798;10.954;2023-08-06T02:52:17;22.20;39.70
64549;DHT22;49838;51.798;10.954;2023-08-06T02:54:44;22.20;39.60
64549;DHT22;49838;51.798;10.954;2023-08-06T02:57:11;22.20;39.70
64549;DHT22;49838;51.798;10.954;2023-08-06T02:59:39;22.20;39.70
64549;DHT22;49838;51.798;10.954;2023-08-06T03:02:07;22.20;39.90
64549;DHT22;49838;51.798;10.954;2023-08-06T03:04:35;22.20;39.90
64549;DHT22;49838;51.798;10.954;2023-08-06T03:07:02;22.10;39.70
64549;DHT22;49838;51.798;10.954;2023-08-06T03:09:29;22.10;39.70
64549;DHT22;49838;51.798;10.954;2023-08-06T03:11:57;22.10;39.70
64549;DHT22;49838;51.798;10.954;2023-08-06T03:14:24;22.10;39.70
64549;DHT22;49838;51.798;10.954;2023-08-06T03:16:51;22.20;39.80
64549;DHT22;49838;51.798;10.954;2023-08-06T03:19:20;22.10;39.80
64549;DHT22;49838;51.798;10.954;2023-08-06T03:21:47;22.10;39.80
64549;DHT22;49838;51.798;10.954;2023-08-06T03:24:14;22.10;39.80
64549;DHT22;49838;51.798;10.954;2023-08-06T03:26:42;22.10;39.90
64549;DHT22;49838;51.798;10.954;2023-08-06T03:29:09;22.10;40.00
64549;DHT22;49838;51.798;10.954;2023-08-06T03:31:36;22.10;40.00
64549;DHT22;49838;51.798;10.954;2023-08-06T03:34:03;22.10;39.80
64549;DHT22;49838;51.798;10.954;2023-08-06T03:36:32;22.10;39.80
64549;DHT22;49838;51.798;10.954;2023-08-06T03:38:59;22.10;39.80
64549;DHT22;49838;51.798;10.954;2023-08-06T03:41:27;22.20;39.90
64549;DHT22;49838;51.798;10.954;2023-08-06T03:43:54;22.10;39.80
64549;DHT22;49838;51.798;10.954;2023-08-06T03:46:21;22.10;39.90
64549;DHT22;49838;51.798;10.954;2023-08-06T03:48:49;22.10;39.90
64549;DHT22;49838;51.798;10.954;2023-08-06T03:51:16;22.10;40.00
64549;DHT22;49838;51.798;10.954;2023-08-06T03:53:44;22.00;40.00
64549;DHT22;49838;51.798;10.954;2023-08-06T03:56:12;22.10;40.10
64549;DHT22;49838;51.798;10.954;2023-08-06T03:58:39;22.10;40.10
64549;DHT22;49838;51.798;10.954;2023-08-06T04:01:06;22.00;39.80
64549;DHT22;49838;51.798;10.954;2023-08-06T04:03:34;22.10;39.90
64549;DHT22;49838;51.798;10.954;2023-08-06T04:06:01;22.10;39.90
64549;DHT22;49838;51.798;10.954;2023-08-06T04:08:29;22.10;39.90
64549;DHT22;49838;51.798;10.954;2023-08-06T04:10:59;22.10;39.90
64549;DHT22;49838;51.798;10.954;2023-08-06T04:13:26;22.10;39.90
64549;DHT22;49838;51.798;10.954;2023-08-06T04:15:54;22.10;39.90
64549;DHT22;49838;51.798;10.954;2023-08-06T04:18:21;22.10;39.80
64549;DHT22;49838;51.798;10.954;2023-08-06T04:20:49;22.10;39.70
64549;DHT22;49838;51.798;10.954;2023-08-06T04:23:18;22.10;39.70
64549;DHT22;49838;51.798;10.954;2023-08-06T04:25:45;22.20;39.80
64549;DHT22;49838;51.798;10.954;2023-08-06T04:28:14;22.20;39.80
64549;DHT22;49838;51.798;10.954;2023-08-06T04:30:41;22.20;39.90
64549;DHT22;49838;51.798;10.954;2023-08-06T04:33:09;22.20;39.90
64549;DHT22;49838;51.798;10.954;2023-08-06T04:35:36;22.20;39.90
64549;DHT22;49838;51.798;10.954;2023-08-06T04:38:03;22.20;40.10
64549;DHT22;49838;51.798;10.954;2023-08-06T04:40:32;22.20;40.20
64549;DHT22;49838;51.798;10.954;2023-08-06T04:43:00;22.10;40.10
64549;DHT22;49838;51.798;10.954;2023-08-06T04:45:29;22.20;40.10
64549;DHT22;49838;51.798;10.954;2023-08-06T04:47:56;22.10;40.00
64549;DHT22;49838;51.798;10.954;2023-08-06T04:50:23;22.10;40.00
64549;DHT22;49838;51.798;10.954;2023-08-06T04:52:51;22.10;40.00
64549;DHT22;49838;51.798;10.954;2023-08-06T04:55:18;22.20;40.10
64549;DHT22;49838;51.798;10.954;2023-08-06T04:57:45;22.20;40.40
64549;DHT22;49838;51.798;10.954;2023-08-06T05:00:13;22.20;40.20
64549;DHT22;49838;51.798;10.954;2023-08-06T05:02:41;22.10;40.20
64549;DHT22;49838;51.798;10.954;2023-08-06T05:05:09;22.20;40.90
64549;DHT22;49838;51.798;10.954;2023-08-06T05:07:36;22.20;40.20
64549;DHT22;49838;51.798;10.954;2023-08-06T05:10:03;22.30;40.30
64549;DHT22;49838;51.798;10.954;2023-08-06T05:12:31;22.30;40.30
64549;DHT22;49838;51.798;10.954;2023-08-06T05:14:58;22.40;40.40
64549;DHT22;49838;51.798;10.954;2023-08-06T05:17:26;22.50;40.40
64549;DHT22;49838;51.798;10.954;2023-08-06T05:19:55;22.50;40.30
64549;DHT22;49838;51.798;10.954;2023-08-06T05:22:22;22.50;40.20
64549;DHT22;49838;51.798;10.954;2023-08-06T05:24:50;22.60;40.30
64549;DHT22;49838;51.798;10.954;2023-08-06T05:27:17;22.60;40.20
64549;DHT22;49838;51.798;10.954;2023-08-06T05:29:45;22.70;40.30
64549;DHT22;49838;51.798;10.954;2023-08-06T05:32:13;22.70;40.40
64549;DHT22;49838;51.798;10.954;2023-08-06T05:34:40;22.80;40.20
64549;DHT22;49838;51.798;10.954;2023-08-06T05:37:09;22.90;40.20
64549;DHT22;49838;51.798;10.954;2023-08-06T05:39:36;23.00;40.30
64549;DHT22;49838;51.798;10.954;2023-08-06T05:42:04;23.10;40.20
64549;DHT22;49838;51.798;10.954;2023-08-06T05:44:32;23.10;40.30
64549;DHT22;49838;51.798;10.954;2023-08-06T05:47:00;23.20;40.50
64549;DHT22;49838;51.798;10.954;2023-08-06T05:49:27;23.20;40.40
64549;DHT22;49838;51.798;10.954;2023-08-06T05:51:54;23.40;40.50
64549;DHT22;49838;51.798;10.954;2023-08-06T05:54:23;23.50;40.60
64549;DHT22;49838;51.798;10.954;2023-08-06T05:56:51;23.50;40.50
64549;DHT22;49838;51.798;10.954;2023-08-06T05:59:18;23.60;40.60
64549;DHT22;49838;51.798;10.954;2023-08-06T06:01:45;23.60;40.60
64549;DHT22;49838;51.798;10.954;2023-08-06T06:04:13;23.60;40.60
64549;DHT22;49838;51.798;10.954;2023-08-06T06:06:40;23.70;40.60
64549;DHT22;49838;51.798;10.954;2023-08-06T06:09:08;23.80;40.70
64549;DHT22;49838;51.798;10.954;2023-08-06T06:11:36;23.90;40.70
64549;DHT22;49838;51.798;10.954;2023-08-06T06:14:04;24.00;40.70
64549;DHT22;49838;51.798;10.954;2023-08-06T06:16:31;24.20;40.70
64549;DHT22;49838;51.798;10.954;2023-08-06T06:18:58;24.40;40.60
64549;DHT22;49838;51.798;10.954;2023-08-06T06:21:26;24.70;40.50
64549;DHT22;49838;51.798;10.954;2023-08-06T06:23:53;24.90;40.50
64549;DHT22;49838;51.798;10.954;2023-08-06T06:26:20;25.10;40.40
64549;DHT22;49838;51.798;10.954;2023-08-06T06:28:49;25.20;40.40
64549;DHT22;49838;51.798;10.954;2023-08-06T06:31:16;25.30;40.70
64549;DHT22;49838;51.798;10.954;2023-08-06T06:33:44;25.30;40.80
64549;DHT22;49838;51.798;10.954;2023-08-06T06:36:11;25.30;40.80
64549;DHT22;49838;51.798;10.954;2023-08-06T06:38:38;25.40;40.80
64549;DHT22;49838;51.798;10.954;2023-08-06T06:41:06;25.60;41.00
64549;DHT22;49838;51.798;10.954;2023-08-06T06:43:33;25.70;41.00
64549;DHT22;49838;51.798;10.954;2023-08-06T06:46:02;25.90;41.10
64549;DHT22;49838;51.798;10.954;2023-08-06T06:48:31;26.10;41.00
64549;DHT22;49838;51.798;10.954;2023-08-06T06:50:59;26.20;41.00
64549;DHT22;49838;51.798;10.954;2023-08-06T06:53:26;26.50;41.00
64549;DHT22;49838;51.798;10.954;2023-08-06T06:55:54;26.70;40.90
64549;DHT22;49838;51.798;10.954;2023-08-06T06:58:21;26.90;40.90
64549;DHT22;49838;51.798;10.954;2023-08-06T07:00:49;26.90;40.80
64549;DHT22;49838;51.798;10.954;2023-08-06T07:03:19;27.00;41.00
64549;DHT22;49838;51.798;10.954;2023-08-06T07:05:47;27.30;41.70
64549;DHT22;49838;51.798;10.954;2023-08-06T07:08:14;27.60;41.00
64549;DHT22;49838;51.798;10.954;2023-08-06T07:10:41;27.70;40.90
64549;DHT22;49838;51.798;10.954;2023-08-06T07:13:09;27.90;40.90
64549;DHT22;49838;51.798;10.954;2023-08-06T07:15:37;28.10;40.90
64549;DHT22;49838;51.798;10.954;2023-08-06T07:18:04;28.20;40.70
64549;DHT22;49838;51.798;10.954;2023-08-06T07:20:33;28.30;40.70
64549;DHT22;49838;51.798;10.954;2023-08-06T07:23:00;28.40;40.70
64549;DHT22;49838;51.798;10.954;2023-08-06T07:25:28;28.50;40.60
64549;DHT22;49838;51.798;10.954;2023-08-06T07:27:58;28.70;40.80
64549;DHT22;49838;51.798;10.954;2023-08-06T07:30:28;29.00;40.70
64549;DHT22;49838;51.798;10.954;2023-08-06T07:32:55;29.20;40.70
64549;DHT22;49838;51.798;10.954;2023-08-06T07:35:22;29.50;40.80
64549;DHT22;49838;51.798;10.954;2023-08-06T07:37:52;29.80;40.80
64549;DHT22;49838;51.798;10.954;2023-08-06T07:40:20;30.10;40.70
64549;DHT22;49838;51.798;10.954;2023-08-06T07:42:47;30.30;40.70
64549;DHT22;49838;51.798;10.954;2023-08-06T07:45:15;30.70;40.70
64549;DHT22;49838;51.798;10.954;2023-08-06T07:47:42;30.90;40.70
64549;DHT22;49838;51.798;10.954;2023-08-06T07:50:10;31.30;40.50
64549;DHT22;49838;51.798;10.954;2023-08-06T07:52:37;31.60;40.40
64549;DHT22;49838;51.798;10.954;2023-08-06T07:55:06;31.90;40.20
64549;DHT22;49838;51.798;10.954;2023-08-06T07:57:34;31.90;40.10
64549;DHT22;49838;51.798;10.954;2023-08-06T08:00:02;32.40;40.30
64549;DHT22;49838;51.798;10.954;2023-08-06T08:02:30;32.60;40.10
64549;DHT22;49838;51.798;10.954;2023-08-06T08:04:58;32.80;40.00
64549;DHT22;49838;51.798;10.954;2023-08-06T08:07:25;33.00;40.00
64549;DHT22;49838;51.798;10.954;2023-08-06T08:09:54;33.20;40.00
64549;DHT22;49838;51.798;10.954;2023-08-06T08:12:23;33.50;40.00
64549;DHT22;49838;51.798;10.954;2023-08-06T08:14:51;33.50;39.50
64549;DHT22;49838;51.798;10.954;2023-08-06T08:17:18;33.60;39.90
64549;DHT22;49838;51.798;10.954;2023-08-06T08:19:45;33.70;39.40
64549;DHT22;49838;51.798;10.954;2023-08-06T08:22:13;33.60;38.60
64549;DHT22;49838;51.798;10.954;2023-08-06T08:24:40;33.50;38.20
64549;DHT22;49838;51.798;10.954;2023-08-06T08:27:09;33.40;38.70
64549;DHT22;49838;51.798;10.954;2023-08-06T08:29:38;33.30;38.50
64549;DHT22;49838;51.798;10.954;2023-08-06T08:32:05;33.40;38.50
64549;DHT22;49838;51.798;10.954;2023-08-06T08:34:33;33.50;38.70
64549;DHT22;49838;51.798;10.954;2023-08-06T08:37:00;33.60;37.80
64549;DHT22;49838;51.798;10.954;2023-08-06T08:39:28;33.70;38.30
64549;DHT22;49838;51.798;10.954;2023-08-06T08:41:55;33.60;37.70
64549;DHT22;49838;51.798;10.954;2023-08-06T08:44:22;33.70;37.50
64549;DHT22;49838;51.798;10.954;2023-08-06T08:46:55;33.60;37.40
64549;DHT22;49838;51.798;10.954;2023-08-06T08:49:24;33.60;37.40
64549;DHT22;49838;51.798;10.954;2023-08-06T08:51:54;33.80;37.60
64549;DHT22;49838;51.798;10.954;2023-08-06T08:54:23;34.00;36.40
64549;DHT22;49838;51.798;10.954;2023-08-06T08:56:51;33.90;35.80
64549;DHT22;49838;51.798;10.954;2023-08-06T08:59:18;33.90;36.20
64549;DHT22;49838;51.798;10.954;2023-08-06T09:01:46;34.00;36.10
64549;DHT22;49838;51.798;10.954;2023-08-06T09:04:18;34.10;35.90
64549;DHT22;49838;51.798;10.954;2023-08-06T09:06:49;34.10;35.70
64549;DHT22;49838;51.798;10.954;2023-08-06T09:09:20;34.10;36.10
64549;DHT22;49838;51.798;10.954;2023-08-06T09:11:51;34.30;36.00
64549;DHT22;49838;51.798;10.954;2023-08-06T09:14:21;34.40;36.40
64549;DHT22;49838;51.798;10.954;2023-08-06T09:16:49;34.80;36.80
64549;DHT22;49838;51.798;10.954;2023-08-06T09:19:16;34.90;35.60
64549;DHT22;49838;51.798;10.954;2023-08-06T09:21:46;35.00;36.30
64549;DHT22;49838;51.798;10.954;2023-08-06T09:24:15;35.20;36.40
64549;DHT22;49838;51.798;10.954;2023-08-06T09:26:43;35.30;36.30
64549;DHT22;49838;51.798;10.954;2023-08-06T09:29:11;35.30;35.20
64549;DHT22;49838;51.798;10.954;2023-08-06T09:31:41;35.40;35.60
64549;DHT22;49838;51.798;10.954;2023-08-06T09:34:15;35.50;35.50
64549;DHT22;49838;51.798;10.954;2023-08-06T09:36:43;35.50;35.70
64549;DHT22;49838;51.798;10.954;2023-08-06T09:39:14;35.70;36.10
64549;DHT22;49838;51.798;10.954;2023-08-06T09:41:43;36.20;36.70
64549;DHT22;49838;51.798;10.954;2023-08-06T09:44:17;36.70;36.00
64549;DHT22;49838;51.798;10.954;2023-08-06T09:46:48;36.90;36.20
64549;DHT22;49838;51.798;10.954;2023-08-06T09:49:17;37.30;36.30
64549;DHT22;49838;51.798;10.954;2023-08-06T09:51:46;37.60;36.30
64549;DHT22;49838;51.798;10.954;2023-08-06T09:54:18;38.10;36.40
64549;DHT22;49838;51.798;10.954;2023-08-06T09:56:45;38.50;36.10
64549;DHT22;49838;51.798;10.954;2023-08-06T09:59:13;38.60;35.50
64549;DHT22;49838;51.798;10.954;2023-08-06T10:01:42;38.40;35.00
64549;DHT22;49838;51.798;10.954;2023-08-06T10:04:10;38.00;34.50
64549;DHT22;49838;51.798;10.954;2023-08-06T10:06:42;37.70;34.30
64549;DHT22;49838;51.798;10.954;2023-08-06T10:09:10;37.30;34.10
64549;DHT22;49838;51.798;10.954;2023-08-06T10:11:39;37.00;34.00
64549;DHT22;49838;51.798;10.954;2023-08-06T10:14:08;36.70;33.90
64549;DHT22;49838;51.798;10.954;2023-08-06T10:16:40;36.40;33.80
64549;DHT22;49838;51.798;10.954;2023-08-06T10:19:10;36.10;33.20
64549;DHT22;49838;51.798;10.954;2023-08-06T10:21:39;35.60;32.50
64549;DHT22;49838;51.798;10.954;2023-08-06T10:24:06;35.20;33.20
64549;DHT22;49838;51.798;10.954;2023-08-06T10:26:36;34.80;33.30
64549;DHT22;49838;51.798;10.954;2023-08-06T10:32:03;34.40;33.40
64549;DHT22;49838;51.798;10.954;2023-08-06T10:37:22;34.10;33.70
64549;DHT22;49838;51.798;10.954;2023-08-06T10:39:50;34.10;33.10
64549;DHT22;49838;51.798;10.954;2023-08-06T10:42:21;33.80;32.40
64549;DHT22;49838;51.798;10.954;2023-08-06T10:47:45;33.60;33.30
64549;DHT22;49838;51.798;10.954;2023-08-06T10:50:13;33.60;33.10
64549;DHT22;49838;51.798;10.954;2023-08-06T10:52:42;33.60;33.00
64549;DHT22;49838;51.798;10.954;2023-08-06T10:55:10;33.50;33.00
64549;DHT22;49838;51.798;10.954;2023-08-06T10:57:38;33.70;33.30
64549;DHT22;49838;51.798;10.954;2023-08-06T11:00:06;33.70;33.10
64549;DHT22;49838;51.798;10.954;2023-08-06T11:02:36;33.70;33.10
64549;DHT22;49838;51.798;10.954;2023-08-06T11:05:05;33.70;33.10
64549;DHT22;49838;51.798;10.954;2023-08-06T11:07:33;33.60;33.00
64549;DHT22;49838;51.798;10.954;2023-08-06T11:10:01;33.50;32.90
64549;DHT22;49838;51.798;10.954;2023-08-06T11:12:30;33.30;32.90
64549;DHT22;49838;51.798;10.954;2023-08-06T11:14:57;33.10;32.90
64549;DHT22;49838;51.798;10.954;2023-08-06T11:17:25;33.10;32.60
64549;DHT22;49838;51.798;10.954;2023-08-06T11:19:56;32.90;32.40
64549;DHT22;49838;51.798;10.954;2023-08-06T11:22:26;32.70;32.70
64549;DHT22;49838;51.798;10.954;2023-08-06T11:24:54;32.60;32.90
64549;DHT22;49838;51.798;10.954;2023-08-06T11:27:22;32.70;33.00
64549;DHT22;49838;51.798;10.954;2023-08-06T11:29:50;32.70;33.00
64549;DHT22;49838;51.798;10.954;2023-08-06T11:32:17;32.80;32.90
64549;DHT22;49838;51.798;10.954;2023-08-06T11:34:44;32.80;32.90
64549;DHT22;49838;51.798;10.954;2023-08-06T11:37:13;32.80;33.10
64549;DHT22;49838;51.798;10.954;2023-08-06T11:39:44;32.80;33.10
64549;DHT22;49838;51.798;10.954;2023-08-06T11:42:13;32.80;33.10
64549;DHT22;49838;51.798;10.954;2023-08-06T11:44:41;32.80;33.00
64549;DHT22;49838;51.798;10.954;2023-08-06T11:47:14;32.80;33.20
64549;DHT22;49838;51.798;10.954;2023-08-06T11:49:44;32.80;33.30
64549;DHT22;49838;51.798;10.954;2023-08-06T11:52:15;32.80;33.40
64549;DHT22;49838;51.798;10.954;2023-08-06T11:54:45;32.70;33.40
64549;DHT22;49838;51.798;10.954;2023-08-06T11:57:14;32.70;33.40
64549;DHT22;49838;51.798;10.954;2023-08-06T11:59:42;32.70;34.20
64549;DHT22;49838;51.798;10.954;2023-08-06T12:02:09;32.60;33.40
64549;DHT22;49838;51.798;10.954;2023-08-06T12:07:32;32.70;33.50
64549;DHT22;49838;51.798;10.954;2023-08-06T12:10:04;32.70;33.50
64549;DHT22;49838;51.798;10.954;2023-08-06T12:12:32;32.80;33.50
64549;DHT22;49838;51.798;10.954;2023-08-06T12:15:00;32.90;33.40
64549;DHT22;49838;51.798;10.954;2023-08-06T12:17:35;33.00;33.90
64549;DHT22;49838;51.798;10.954;2023-08-06T12:20:04;32.90;33.10
64549;DHT22;49838;51.798;10.954;2023-08-06T12:22:34;32.90;33.20
64549;DHT22;49838;51.798;10.954;2023-08-06T12:25:02;33.00;32.30
64549;DHT22;49838;51.798;10.954;2023-08-06T12:27:32;32.80;32.10
64549;DHT22;49838;51.798;10.954;2023-08-06T12:30:00;32.80;32.70
64549;DHT22;49838;51.798;10.954;2023-08-06T12:32:27;32.80;32.40
64549;DHT22;49838;51.798;10.954;2023-08-06T12:34:55;32.80;32.50
64549;DHT22;49838;51.798;10.954;2023-08-06T12:37:23;32.80;32.40
64549;DHT22;49838;51.798;10.954;2023-08-06T12:39:52;32.80;32.50
64549;DHT22;49838;51.798;10.954;2023-08-06T12:42:20;32.80;32.10
64549;DHT22;49838;51.798;10.954;2023-08-06T12:44:47;32.70;31.60
64549;DHT22;49838;51.798;10.954;2023-08-06T12:47:15;32.50;31.70
64549;DHT22;49838;51.798;10.954;2023-08-06T12:49:43;32.20;31.80
64549;DHT22;49838;51.798;10.954;2023-08-06T12:52:11;32.00;32.10
64549;DHT22;49838;51.798;10.954;2023-08-06T12:54:41;31.90;32.00
64549;DHT22;49838;51.798;10.954;2023-08-06T12:57:09;31.80;32.40
64549;DHT22;49838;51.798;10.954;2023-08-06T12:59:37;31.80;32.10
64549;DHT22;49838;51.798;10.954;2023-08-06T13:02:05;31.90;32.20
64549;DHT22;49838;51.798;10.954;2023-08-06T13:04:33;31.80;32.10
64549;DHT22;49838;51.798;10.954;2023-08-06T13:07:00;31.60;32.10
64549;DHT22;49838;51.798;10.954;2023-08-06T13:09:28;31.50;32.50
64549;DHT22;49838;51.798;10.954;2023-08-06T13:11:56;31.30;32.60
64549;DHT22;49838;51.798;10.954;2023-08-06T13:14:28;31.20;32.70
64549;DHT22;49838;51.798;10.954;2023-08-06T13:16:56;31.10;33.00
64549;DHT22;49838;51.798;10.954;2023-08-06T13:19:23;30.90;32.90
64549;DHT22;49838;51.798;10.954;2023-08-06T13:21:58;30.90;32.90
64549;DHT22;49838;51.798;10.954;2023-08-06T13:24:28;30.90;33.00
64549;DHT22;49838;51.798;10.954;2023-08-06T13:26:55;30.90;33.00
64549;DHT22;49838;51.798;10.954;2023-08-06T13:29:23;30.90;33.00
64549;DHT22;49838;51.798;10.954;2023-08-06T13:31:52;30.80;33.00
64549;DHT22;49838;51.798;10.954;2023-08-06T13:34:20;30.70;33.00
64549;DHT22;49838;51.798;10.954;2023-08-06T13:36:47;30.70;33.20
64549;DHT22;49838;51.798;10.954;2023-08-06T13:39:15;30.70;33.20
64549;DHT22;49838;51.798;10.954;2023-08-06T13:41:43;30.70;33.40
64549;DHT22;49838;51.798;10.954;2023-08-06T13:44:11;30.80;33.50
64549;DHT22;49838;51.798;10.954;2023-08-06T13:46:41;30.90;33.60
64549;DHT22;49838;51.798;10.954;2023-08-06T13:49:10;31.10;33.60
64549;DHT22;49838;51.798;10.954;2023-08-06T13:51:37;31.20;33.60
64549;DHT22;49838;51.798;10.954;2023-08-06T13:54:05;31.30;33.50
64549;DHT22;49838;51.798;10.954;2023-08-06T13:56:32;31.30;33.40
64549;DHT22;49838;51.798;10.954;2023-08-06T13:59:03;31.30;33.40
64549;DHT22;49838;51.798;10.954;2023-08-06T14:01:31;31.40;33.40
64549;DHT22;49838;51.798;10.954;2023-08-06T14:03:58;31.30;33.20
64549;DHT22;49838;51.798;10.954;2023-08-06T14:06:27;31.30;33.40
64549;DHT22;49838;51.798;10.954;2023-08-06T14:08:54;31.20;33.20
64549;DHT22;49838;51.798;10.954;2023-08-06T14:11:22;31.10;33.40
64549;DHT22;49838;51.798;10.954;2023-08-06T14:13:49;31.00;33.30
64549;DHT22;49838;51.798;10.954;2023-08-06T14:16:16;30.90;33.40
64549;DHT22;49838;51.798;10.954;2023-08-06T14:18:44;30.80;33.40
64549;DHT22;49838;51.798;10.954;2023-08-06T14:21:11;30.80;33.50
64549;DHT22;49838;51.798;10.954;2023-08-06T14:23:40;30.90;33.30
64549;DHT22;49838;51.798;10.954;2023-08-06T14:26:08;30.70;33.20
64549;DHT22;49838;51.798;10.954;2023-08-06T14:28:36;30.60;33.30
64549;DHT22;49838;51.798;10.954;2023-08-06T14:31:03;30.40;33.30
64549;DHT22;49838;51.798;10.954;2023-08-06T14:33:31;30.40;33.50
64549;DHT22;49838;51.798;10.954;2023-08-06T14:35:58;30.30;33.50
64549;DHT22;49838;51.798;10.954;2023-08-06T14:38:26;30.30;33.70
64549;DHT22;49838;51.798;10.954;2023-08-06T14:40:55;30.30;33.70
64549;DHT22;49838;51.798;10.954;2023-08-06T14:43:22;30.20;33.60
64549;DHT22;49838;51.798;10.954;2023-08-06T14:45:49;30.20;33.50
64549;DHT22;49838;51.798;10.954;2023-08-06T14:48:17;30.20;33.60
64549;DHT22;49838;51.798;10.954;2023-08-06T14:50:44;30.30;33.60
64549;DHT22;49838;51.798;10.954;2023-08-06T14:53:12;30.40;33.50
64549;DHT22;49838;51.798;10.954;2023-08-06T14:55:39;30.60;33.70
64549;DHT22;49838;51.798;10.954;2023-08-06T14:58:09;30.50;33.70
64549;DHT22;49838;51.798;10.954;2023-08-06T15:00:36;30.50;33.80
64549;DHT22;49838;51.798;10.954;2023-08-06T15:03:03;30.60;33.90
64549;DHT22;49838;51.798;10.954;2023-08-06T15:05:31;30.60;33.70
64549;DHT22;49838;51.798;10.954;2023-08-06T15:07:59;30.70;33.70
64549;DHT22;49838;51.798;10.954;2023-08-06T15:10:26;30.60;33.80
64549;DHT22;49838;51.798;10.954;2023-08-06T15:12:54;30.60;33.70
64549;DHT22;49838;51.798;10.954;2023-08-06T15:15:23;30.50;33.50
64549;DHT22;49838;51.798;10.954;2023-08-06T15:17:51;30.40;33.50
64549;DHT22;49838;51.798;10.954;2023-08-06T15:20:19;30.30;33.70
64549;DHT22;49838;51.798;10.954;2023-08-06T15:22:46;30.20;33.70
64549;DHT22;49838;51.798;10.954;2023-08-06T15:25:14;30.10;33.70
64549;DHT22;49838;51.798;10.954;2023-08-06T15:27:41;30.10;33.80
64549;DHT22;49838;51.798;10.954;2023-08-06T15:30:09;30.00;33.70
64549;DHT22;49838;51.798;10.954;2023-08-06T15:32:38;29.90;33.70